createdAt,value
2024-02-21T00:00:59.674Z,9.6
2024-02-21T00:04:01.850Z,9
2024-02-21T00:07:03.842Z,13
2024-02-21T00:10:05.811Z,12.6
2024-02-21T00:13:07.703Z,12.7
2024-02-21T00:16:09.701Z,14.5
2024-02-21T00:19:11.784Z,11.7
2024-02-21T00:22:13.585Z,8.8
2024-02-21T00:25:15.715Z,10.1
2024-02-21T00:28:17.636Z,17
2024-02-21T00:31:19.569Z,13.1
2024-02-21T00:34:21.727Z,14.2
2024-02-21T00:37:23.605Z,9.9
2024-02-21T00:40:25.646Z,15.3
2024-02-21T00:43:27.557Z,12.4
2024-02-21T00:46:29.632Z,14.9
2024-02-21T00:49:31.710Z,17.8
2024-02-21T00:52:33.667Z,55.5
2024-02-21T00:55:35.585Z,27
2024-02-21T00:58:37.621Z,20.8
2024-02-21T01:01:39.582Z,27.6
2024-02-21T01:04:41.556Z,20
2024-02-21T01:07:43.601Z,16.7
2024-02-21T01:10:45.444Z,15.6
2024-02-21T01:13:47.453Z,19.9
2024-02-21T01:16:49.450Z,18.1
2024-02-21T01:19:51.438Z,11.3
2024-02-21T01:22:53.547Z,14.3
2024-02-21T01:29:00.600Z,12.8
2024-02-21T01:32:05.675Z,12.1
2024-02-21T01:35:07.783Z,14.3
2024-02-21T01:38:09.714Z,15.4
2024-02-21T01:41:17.913Z,15.6
2024-02-21T01:44:31.463Z,16.1
2024-02-21T01:47:20.883Z,15
2024-02-21T01:50:24.682Z,11.4
2024-02-21T01:53:28.015Z,14
2024-02-21T01:59:31.980Z,19.9
2024-02-21T02:02:33.958Z,13.3
2024-02-21T02:05:35.921Z,9.1
2024-02-21T02:08:37.891Z,16
2024-02-21T02:11:41.869Z,15.4
2024-02-21T02:14:41.857Z,11.7
2024-02-21T02:17:43.885Z,12.5
2024-02-21T02:20:48.849Z,13.7
2024-02-21T02:23:50.803Z,11.3
2024-02-21T02:26:52.753Z,13.6
2024-02-21T02:29:54.904Z,11.4
2024-02-21T02:32:56.908Z,9.7
2024-02-21T02:35:58.885Z,10.7
2024-02-21T02:39:00.870Z,10.2
2024-02-21T02:42:02.865Z,11.8
2024-02-21T02:45:04.824Z,10.5
2024-02-21T02:48:06.959Z,12.1
2024-02-21T02:51:08.775Z,13
2024-02-21T02:54:10.757Z,10.7
2024-02-21T02:57:12.919Z,10.2
2024-02-21T03:00:14.886Z,13.2
2024-02-21T03:03:17.047Z,9.8
2024-02-21T03:06:19.278Z,15.1
2024-02-21T03:09:20.979Z,12.4
2024-02-21T03:12:22.946Z,12.3
2024-02-21T03:15:24.918Z,10.7
2024-02-21T03:18:26.904Z,11.8
2024-02-21T03:21:28.773Z,13.7
2024-02-21T03:24:30.728Z,13.9
2024-02-21T03:27:32.690Z,12.6
2024-02-21T03:30:34.648Z,11.3
2024-02-21T03:33:36.687Z,13.1
2024-02-21T03:36:38.610Z,14.3
2024-02-21T03:39:40.519Z,15.7
2024-02-21T03:42:42.525Z,13.3
2024-02-21T03:45:44.517Z,12.5
2024-02-21T03:48:46.472Z,18.9
2024-02-21T03:51:48.657Z,16.1
2024-02-21T03:54:50.361Z,13
2024-02-21T03:57:52.314Z,18.1
2024-02-21T04:00:54.328Z,14.1
2024-02-21T04:03:59.314Z,13.9
2024-02-21T04:07:01.526Z,15.3
2024-02-21T04:10:03.504Z,16.6
2024-02-21T04:13:05.423Z,15.5
2024-02-21T04:16:07.437Z,13.7
2024-02-21T04:19:09.624Z,16.8
2024-02-21T04:22:11.409Z,15.2
2024-02-21T04:25:13.390Z,17.1
2024-02-21T04:28:15.315Z,18.2
2024-02-21T04:31:17.306Z,19
2024-02-21T04:34:19.309Z,18
2024-02-21T04:37:21.212Z,16
2024-02-21T04:40:23.111Z,15.8
2024-02-21T04:43:25.040Z,13.2
2024-02-21T04:46:27.005Z,16.8
2024-02-21T04:49:29.037Z,15.9
2024-02-21T04:52:31.100Z,16
2024-02-21T04:55:32.959Z,16.5
2024-02-21T04:58:34.958Z,15.9
2024-02-21T05:01:37.054Z,17.2
2024-02-21T05:04:38.921Z,12.8
2024-02-21T05:07:40.815Z,14.4
2024-02-21T05:10:42.901Z,14.7
2024-02-21T05:13:47.316Z,13.5
2024-02-21T05:16:46.740Z,13.7
2024-02-21T05:19:48.830Z,18.4
2024-02-21T05:22:50.666Z,13.2
2024-02-21T05:28:54.610Z,17.2
2024-02-21T05:31:56.657Z,15.7
2024-02-21T05:34:58.409Z,14.2
2024-02-21T05:38:00.402Z,17.4
2024-02-21T05:41:02.475Z,12.9
2024-02-21T05:44:04.233Z,15.2
2024-02-21T05:47:06.249Z,14.9
2024-02-21T05:50:08.160Z,16.4
2024-02-21T05:53:10.188Z,15
2024-02-21T05:59:13.988Z,14.4
2024-02-21T06:02:16.132Z,17.8
2024-02-21T06:05:17.945Z,14.1
2024-02-21T06:08:19.930Z,14.6
2024-02-21T06:11:22.067Z,13.1
2024-02-21T06:14:23.788Z,18
2024-02-21T06:17:25.967Z,16.1
2024-02-21T06:20:27.759Z,17.3
2024-02-21T06:23:29.928Z,15.1
2024-02-21T06:29:33.886Z,16
2024-02-21T06:32:35.869Z,16.1
2024-02-21T06:35:37.861Z,15.3
2024-02-21T06:38:39.823Z,15.4
2024-02-21T06:41:41.836Z,15
2024-02-21T06:44:43.733Z,16.6
2024-02-21T06:47:45.768Z,16.9
2024-02-21T06:50:47.694Z,19.4
2024-02-21T06:53:49.664Z,16.4
2024-02-21T06:56:51.556Z,19
2024-02-21T06:59:53.588Z,13.5
2024-02-21T07:02:55.517Z,12.6
2024-02-21T07:05:57.622Z,12.8
2024-02-21T07:08:59.469Z,19.6
2024-02-21T07:12:01.417Z,14.1
2024-02-21T07:15:05.269Z,15.2
2024-02-21T07:18:05.467Z,14.5
2024-02-21T07:21:07.352Z,16.8
2024-02-21T07:24:09.246Z,12.7
2024-02-21T07:27:11.307Z,12.1
2024-02-21T07:30:15.333Z,14.2
2024-02-21T07:33:15.291Z,15.7
2024-02-21T07:36:17.241Z,11.7
2024-02-21T07:39:19.190Z,20.2
2024-02-21T07:42:21.199Z,12.2
2024-02-21T07:45:23.457Z,11
2024-02-21T07:48:25.336Z,13.2
2024-02-21T07:51:36.476Z,14.2
2024-02-21T07:54:28.399Z,18.1
2024-02-21T07:57:30.612Z,13.8
2024-02-21T08:00:32.706Z,14.3
2024-02-21T08:03:34.805Z,13.9
2024-02-21T08:06:36.724Z,12.8
2024-02-21T08:09:38.688Z,17.2
2024-02-21T08:12:40.704Z,14.1
2024-02-21T08:15:42.737Z,12.6
2024-02-21T08:18:53.454Z,12.1
2024-02-21T08:21:45.363Z,10.3
2024-02-21T08:24:47.320Z,13.4
2024-02-21T08:27:49.315Z,9.9
2024-02-21T08:30:51.262Z,11.6
2024-02-21T08:33:53.222Z,10.2
2024-02-21T08:36:55.295Z,11.3
2024-02-21T08:39:57.176Z,11.2
2024-02-21T08:42:59.066Z,11.8
2024-02-21T08:46:04.321Z,13
2024-02-21T08:49:06.343Z,10
2024-02-21T08:52:08.242Z,8.7
2024-02-21T08:55:10.193Z,9.7
2024-02-21T08:58:12.212Z,9.2
2024-02-21T09:01:14.289Z,9.2
2024-02-21T09:04:16.174Z,7.9
2024-02-21T09:07:18.236Z,10.9
2024-02-21T09:10:20.165Z,11.1
2024-02-21T09:13:24.239Z,9.1
2024-02-21T09:16:24.111Z,9.2
2024-02-21T09:19:26.093Z,12.2
2024-02-21T09:22:27.963Z,7.2
2024-02-21T09:25:29.937Z,11.5
2024-02-21T09:28:31.954Z,7.5
2024-02-21T09:31:33.974Z,11.5
2024-02-21T09:34:36.100Z,9.2
2024-02-21T09:37:37.878Z,9.2
2024-02-21T09:40:39.915Z,6.2
2024-02-21T09:43:41.937Z,7
2024-02-21T09:46:43.942Z,7.4
2024-02-21T09:49:45.949Z,7.9
2024-02-21T09:52:47.903Z,10.2
2024-02-21T09:55:49.953Z,8.5
2024-02-21T09:58:52.921Z,7.9
2024-02-21T10:01:55.017Z,13
2024-02-21T10:04:56.892Z,14.6
2024-02-21T10:07:58.904Z,9.1
2024-02-21T10:11:00.847Z,8.2
2024-02-21T10:14:02.793Z,9.4
2024-02-21T10:17:04.711Z,7
2024-02-21T10:20:06.682Z,10.3
2024-02-21T10:23:08.627Z,9.3
2024-02-21T10:29:12.581Z,8.7
2024-02-21T10:32:14.756Z,8.2
2024-02-21T10:35:18.905Z,8.8
2024-02-21T10:38:18.504Z,11.6
2024-02-21T10:41:20.604Z,6.2
2024-02-21T10:44:22.458Z,6.2
2024-02-21T10:47:24.374Z,9.4
2024-02-21T10:50:29.498Z,10.4
2024-02-21T10:53:31.452Z,5.4
2024-02-21T10:59:35.354Z,9.1
2024-02-21T11:02:37.428Z,6.8
2024-02-21T11:05:39.405Z,5.4
2024-02-21T11:08:41.768Z,7.7
2024-02-21T11:11:43.559Z,8.2
2024-02-21T11:14:45.374Z,12
2024-02-21T11:17:50.445Z,12.6
2024-02-21T11:20:49.412Z,8.3
2024-02-21T11:23:54.378Z,11
2024-02-21T11:26:56.383Z,11.8
2024-02-21T11:29:58.391Z,7.9
2024-02-21T11:33:00.488Z,9.4
2024-02-21T11:36:02.560Z,8.4
2024-02-21T11:39:04.609Z,7.8
2024-02-21T11:42:06.494Z,8.3
2024-02-21T11:45:08.483Z,8.4
2024-02-21T11:48:10.601Z,8.8
2024-02-21T11:51:12.540Z,10.2
2024-02-21T11:54:14.506Z,7.2
2024-02-21T11:57:19.635Z,8.2
2024-02-21T12:00:21.787Z,8.4
2024-02-21T12:03:23.600Z,10
2024-02-21T12:06:25.626Z,10.1
2024-02-21T12:09:27.506Z,10.5
2024-02-21T12:12:29.547Z,7.9
2024-02-21T12:15:31.605Z,5.1
2024-02-21T12:18:33.583Z,9.4
2024-02-21T12:21:35.505Z,7.2
2024-02-21T12:24:40.357Z,7.9
2024-02-21T12:27:45.780Z,11
2024-02-21T12:30:47.868Z,9.3
2024-02-21T12:33:49.968Z,9.7
2024-02-21T12:36:54.399Z,10.4
2024-02-21T12:39:57.182Z,8.5
2024-02-21T12:43:15.058Z,9.3
2024-02-21T12:46:09.040Z,7.8
2024-02-21T12:49:11.086Z,6.3
2024-02-21T12:52:13.088Z,7.6
2024-02-21T12:55:17.880Z,9.2
2024-02-21T12:58:23.125Z,5.1
2024-02-21T13:01:25.206Z,8.5
2024-02-21T13:04:27.103Z,8.5
2024-02-21T13:07:29.152Z,8.6
2024-02-21T13:10:37.247Z,7.6
2024-02-21T13:13:39.237Z,8.3
2024-02-21T13:16:41.224Z,9.1
2024-02-21T13:19:43.212Z,7.5
2024-02-21T13:22:45.260Z,7.6
2024-02-21T13:25:47.067Z,9.4
2024-02-21T13:28:49.182Z,7
2024-02-21T13:32:00.754Z,8.5
2024-02-21T13:35:00.119Z,5.8
2024-02-21T13:38:02.273Z,10.4
2024-02-21T13:41:09.783Z,10.8
2024-02-21T13:44:11.811Z,10.8
2024-02-21T13:47:21.482Z,7.1
2024-02-21T13:50:15.967Z,8.3
2024-02-21T13:53:18.026Z,9.4
2024-02-21T13:59:22.929Z,9.2
2024-02-21T14:02:25.627Z,6.5
2024-02-21T14:05:26.826Z,9.2
2024-02-21T14:08:28.871Z,9.3
2024-02-21T14:11:30.982Z,8
2024-02-21T14:14:32.811Z,6.5
2024-02-21T14:17:34.817Z,6.3
2024-02-21T14:20:36.830Z,6.1
2024-02-21T14:23:38.722Z,6.4
2024-02-21T14:29:42.700Z,9.1
2024-02-21T14:32:47.127Z,8.5
2024-02-21T14:38:51.700Z,5.9
2024-02-21T14:41:53.829Z,5.8
2024-02-21T14:44:55.790Z,7.1
2024-02-21T14:47:57.747Z,6.2
2024-02-21T14:50:59.838Z,6.9
2024-02-21T14:54:01.900Z,8.4
2024-02-21T14:57:05.700Z,8.5
2024-02-21T15:00:05.868Z,7.7
2024-02-21T15:03:07.836Z,9.3
2024-02-21T15:06:09.845Z,7.2
2024-02-21T15:09:12.517Z,3.7
2024-02-21T15:12:13.811Z,9
2024-02-21T15:15:15.937Z,5.4
2024-02-21T15:18:17.735Z,6.9
2024-02-21T15:21:19.761Z,8.2
2024-02-21T15:24:21.723Z,8.6
2024-02-21T15:27:23.715Z,7.6
2024-02-21T15:30:25.750Z,8.5
2024-02-21T15:33:27.732Z,8.4
2024-02-21T15:36:29.868Z,9
2024-02-21T15:39:34.837Z,6.9
2024-02-21T15:42:36.809Z,9.4
2024-02-21T15:45:38.731Z,4.3
2024-02-21T15:48:40.789Z,7.8
2024-02-21T15:51:45.473Z,5.1
2024-02-21T15:54:47.551Z,5.9
2024-02-21T15:57:49.452Z,7.3
2024-02-21T16:00:51.483Z,10
2024-02-21T16:03:53.489Z,6.1
2024-02-21T16:06:55.474Z,6
2024-02-21T16:10:03.391Z,5.7
2024-02-21T16:13:05.321Z,7.2
2024-02-21T16:16:07.319Z,6.6
2024-02-21T16:19:09.386Z,7.2
2024-02-21T16:22:11.346Z,6.6
2024-02-21T16:25:16.307Z,7.7
2024-02-21T16:28:18.292Z,9.4
2024-02-21T16:31:20.527Z,5.7
2024-02-21T16:34:22.895Z,6.3
2024-02-21T16:37:27.548Z,6.7
2024-02-21T16:40:32.594Z,8.3
2024-02-21T16:43:34.788Z,6.4
2024-02-21T16:46:36.761Z,12.3
2024-02-21T16:49:38.778Z,8.7
2024-02-21T16:52:43.179Z,7
2024-02-21T16:55:45.624Z,6.9
2024-02-21T16:58:47.680Z,7.5
2024-02-21T17:01:49.857Z,5.7
2024-02-21T17:04:51.811Z,7
2024-02-21T17:07:53.880Z,8.1
2024-02-21T17:10:55.881Z,5.1
2024-02-21T17:13:57.812Z,6.3
2024-02-21T17:17:00.932Z,5.5
2024-02-21T17:20:02.095Z,8.1
2024-02-21T17:23:04.179Z,6.4
2024-02-21T17:29:10.981Z,7.5
2024-02-21T17:32:12.833Z,6.3
2024-02-21T17:35:14.923Z,6.5
2024-02-21T17:38:19.836Z,7.5
2024-02-21T17:41:22.113Z,7.1
2024-02-21T17:44:24.246Z,6.6
2024-02-21T17:47:26.357Z,7.2
2024-02-21T17:50:28.506Z,7.5
2024-02-21T17:53:30.475Z,6.8
2024-02-21T17:59:34.252Z,8.7
2024-02-21T18:02:36.216Z,6.4
2024-02-21T18:05:38.180Z,7.1
2024-02-21T18:08:40.148Z,5.8
2024-02-21T18:11:42.096Z,6.4
2024-02-21T18:14:44.058Z,4.8
2024-02-21T18:17:46.022Z,5.6
2024-02-21T18:20:48.028Z,6.4
2024-02-21T18:23:49.978Z,8.8
2024-02-21T18:26:51.918Z,7.8
2024-02-21T18:29:59.663Z,3.5
2024-02-21T18:32:55.999Z,6.3
2024-02-21T18:36:00.838Z,5.6
2024-02-21T18:39:02.801Z,4.7
2024-02-21T18:42:04.824Z,8
2024-02-21T18:45:06.737Z,4.1
2024-02-21T18:48:09.108Z,4.2
2024-02-21T18:51:10.710Z,5.2
2024-02-21T18:54:12.566Z,5
2024-02-21T18:57:14.602Z,5.7
2024-02-21T19:00:16.489Z,4.7
2024-02-21T19:03:20.397Z,4.8
2024-02-21T19:06:20.518Z,5.7
2024-02-21T19:09:36.805Z,6
2024-02-21T19:12:29.089Z,8.3
2024-02-21T19:15:31.186Z,5.9
2024-02-21T19:18:33.209Z,4
2024-02-21T19:21:38.196Z,6.5
2024-02-21T19:24:40.235Z,5
2024-02-21T19:27:42.296Z,6.2
2024-02-21T19:30:47.342Z,8.6
2024-02-21T19:33:49.351Z,5.2
2024-02-21T19:36:51.442Z,5.9
2024-02-21T19:39:59.009Z,8.1
2024-02-21T19:42:58.515Z,5.6
2024-02-21T19:46:00.512Z,5.1
2024-02-21T19:49:05.408Z,4.9
2024-02-21T19:52:07.274Z,7.9
2024-02-21T19:55:09.386Z,9.1
2024-02-21T19:58:11.476Z,6.5
2024-02-21T20:01:13.489Z,5.2
2024-02-21T20:04:15.404Z,5.6
2024-02-21T20:07:17.371Z,4.6
2024-02-21T20:10:19.365Z,6.1
2024-02-21T20:13:24.451Z,5.6
2024-02-21T20:16:28.554Z,5.5
2024-02-21T20:19:28.378Z,7.7
2024-02-21T20:22:30.475Z,4.8
2024-02-21T20:25:32.471Z,4.9
2024-02-21T20:28:34.382Z,7.8
2024-02-21T20:31:39.159Z,8.5
2024-02-21T20:34:42.088Z,9
2024-02-21T20:37:49.627Z,6
2024-02-21T20:40:49.147Z,8.4
2024-02-21T20:43:54.259Z,7.5
2024-02-21T20:46:59.220Z,8.7
2024-02-21T20:56:05.213Z,8.3
2024-02-21T20:59:07.208Z,10.4
2024-02-21T21:02:09.178Z,7.6
2024-02-21T21:05:11.189Z,6.2
2024-02-21T21:08:13.141Z,8.9
2024-02-21T21:11:15.412Z,5.2
2024-02-21T21:14:17.210Z,6.9
2024-02-21T21:17:19.330Z,5.8
2024-02-21T21:23:23.201Z,7.6
2024-02-21T21:26:25.161Z,6.4
2024-02-21T21:29:27.087Z,8.4
2024-02-21T21:32:29.197Z,6.1
2024-02-21T21:35:31.087Z,5.7
2024-02-21T21:38:33.183Z,10.6
2024-02-21T21:41:35.112Z,6.7
2024-02-21T21:44:37.026Z,7.5
2024-02-21T21:47:39.043Z,7.7
2024-02-21T21:50:40.943Z,9.8
2024-02-21T21:53:42.927Z,5.9
2024-02-21T21:59:49.605Z,8.5
2024-02-21T22:02:51.524Z,7.9
2024-02-21T22:05:53.623Z,9.2
2024-02-21T22:08:55.517Z,6.3
2024-02-21T22:11:57.468Z,9.4
2024-02-21T22:14:59.415Z,7.7
2024-02-21T22:18:01.494Z,9.5
2024-02-21T22:21:03.339Z,7.5
2024-02-21T22:24:05.269Z,10.6
2024-02-21T22:27:07.196Z,9.8
2024-02-21T22:30:09.186Z,8.9
2024-02-21T22:33:11.108Z,8.4
2024-02-21T22:36:18.456Z,7.5
2024-02-21T22:39:17.746Z,9.8
2024-02-21T22:42:19.757Z,8.4
2024-02-21T22:45:21.718Z,8
2024-02-21T22:48:23.706Z,6.6
2024-02-21T22:51:25.619Z,7.2
2024-02-21T22:54:28.030Z,7.6
2024-02-21T22:57:29.981Z,9.1
2024-02-21T23:00:32.035Z,6.9
2024-02-21T23:03:36.687Z,5.4
2024-02-21T23:06:38.588Z,6.8
2024-02-21T23:09:40.540Z,5.6
2024-02-21T23:12:42.470Z,5.9
2024-02-21T23:15:44.483Z,5.4
2024-02-21T23:18:46.430Z,6.6
2024-02-21T23:21:48.464Z,5.3
2024-02-21T23:24:50.387Z,5.1
2024-02-21T23:27:52.308Z,4.3
2024-02-21T23:30:56.825Z,5.6
2024-02-21T23:33:56.312Z,7.8
2024-02-21T23:36:58.215Z,5.2
2024-02-21T23:40:00.252Z,4.5
2024-02-21T23:43:04.635Z,5
2024-02-21T23:46:04.100Z,3.7
2024-02-21T23:49:06.105Z,4.5
2024-02-21T23:52:07.993Z,5.2
2024-02-21T23:55:10.104Z,5
2024-02-21T23:58:12.054Z,4.3
